White Rock, New Mexico
Current Conditions -  °F | °C
As of 6:35 PM on Friday 28 Nov 2014 (Local Time) from KLAM Reporting Station
Clear Clear  
Wind Chill: 50°   Ceiling: Unl
Heat Index: 50°   Visibility: 10mi
Dew Point: 15°   Wind: 3mph
Humidity: 24%   Direction: 250°WSW
Pressure: 30.15"   Gusts: NA
Location:  35.8375°N, 106.349°W
Report Text: KLAM 290135Z AUTO 25003KT 10SM CLR 10/M10 A3015 RMK AO2 T01011096
Loading
Personal Weather Stations






























Interactive Weather Map New forecast layout! Learn more

10-Day Weather Forecast

Advertisements
Track Severe Weather on mobile